Time;durP1;ratioP1;P1;durP2;ratioP2;P2;SDS_P1;SDS_P2;PMS_P1;PMS_P2;Temp;Humidity;BMP_temperature;BMP_pressure;BME280_temperature;BME280_humidity;BME280_pressure;Samples;Min_cycle;Max_cycle;Signal;HPM_P1;HPM_P2
2023/12/01 00:02:21;;;;;;;31.67;22.42;;;1.10;99.90;;;;;;5003612;28;20515;-34
2023/12/01 00:04:47;;;;;;;31.77;23.45;;;1.10;99.90;;;;;;5004060;28;20050;-33
2023/12/01 00:07:13;;;;;;;30.40;19.85;;;1.10;99.90;;;;;;5005841;28;20088;-34
2023/12/01 00:09:40;;;;;;;23.80;14.65;;;1.10;99.90;;;;;;5002911;28;20060;-51
2023/12/01 00:12:05;;;;;;;25.63;15.02;;;1.10;99.90;;;;;;5004494;28;20097;-33
2023/12/01 00:14:31;;;;;;;26.23;17.88;;;1.10;99.90;;;;;;5004777;28;20084;-33
2023/12/01 00:16:57;;;;;;;28.35;19.90;;;1.10;99.90;;;;;;5009987;28;20491;-33
2023/12/01 00:19:22;;;;;;;29.80;21.98;;;1.10;99.90;;;;;;5008065;28;20472;-33
2023/12/01 00:21:48;;;;;;;27.30;15.90;;;1.10;99.90;;;;;;5024472;28;20104;-32
2023/12/01 00:24:14;;;;;;;26.30;18.02;;;1.10;99.90;;;;;;5007663;28;20546;-33
2023/12/01 00:26:40;;;;;;;24.77;19.15;;;1.10;99.90;;;;;;5028053;28;20133;-35
2023/12/01 00:29:06;;;;;;;25.48;18.80;;;1.10;99.90;;;;;;5009961;28;20077;-33
2023/12/01 00:31:31;;;;;;;24.05;15.05;;;1.10;99.90;;;;;;5010380;28;20050;-33
2023/12/01 00:33:57;;;;;;;29.75;20.80;;;1.10;99.90;;;;;;5010995;28;20054;-33
2023/12/01 00:36:23;;;;;;;28.35;20.40;;;1.10;99.90;;;;;;5009804;28;20088;-40
2023/12/01 00:38:48;;;;;;;26.23;16.42;;;1.10;99.90;;;;;;5011038;28;20050;-33
2023/12/01 00:41:14;;;;;;;26.83;20.17;;;1.20;99.90;;;;;;5007664;28;20627;-34
2023/12/01 00:43:40;;;;;;;28.48;20.45;;;1.20;99.90;;;;;;5004093;28;20140;-39
2023/12/01 00:46:05;;;;;;;25.15;17.45;;;1.10;99.90;;;;;;5007494;28;20793;-34
2023/12/01 00:48:31;;;;;;;25.05;17.70;;;1.20;99.90;;;;;;5007614;28;20050;-34
2023/12/01 00:50:57;;;;;;;27.17;18.52;;;1.20;99.90;;;;;;5011613;28;20423;-34
2023/12/01 00:53:22;;;;;;;26.10;19.50;;;1.20;99.90;;;;;;5009106;28;20049;-34
2023/12/01 00:55:49;;;;;;;28.83;20.05;;;1.20;99.90;;;;;;5009039;28;20050;-33
2023/12/01 00:58:15;;;;;;;27.42;19.10;;;1.20;99.90;;;;;;5009446;28;20515;-34
2023/12/01 01:00:40;;;;;;;28.40;20.33;;;1.20;99.90;;;;;;5008541;28;20058;-34
2023/12/01 01:03:06;;;;;;;27.65;19.20;;;1.20;99.90;;;;;;5007277;28;21394;-44
2023/12/01 01:05:32;;;;;;;30.60;21.23;;;1.20;99.90;;;;;;5009718;28;20060;-34
2023/12/01 01:07:58;;;;;;;25.48;18.15;;;1.20;99.90;;;;;;5004263;28;20046;-34
2023/12/01 01:10:24;;;;;;;27.33;18.00;;;1.20;99.90;;;;;;5009855;28;20453;-34
2023/12/01 01:12:50;;;;;;;27.85;17.17;;;1.20;99.90;;;;;;5008553;28;20097;-34
2023/12/01 01:15:15;;;;;;;26.02;19.58;;;1.20;99.90;;;;;;5004569;28;20129;-34
2023/12/01 01:17:41;;;;;;;29.65;19.90;;;1.20;99.90;;;;;;5009113;28;20050;-34
2023/12/01 01:20:07;;;;;;;28.38;21.10;;;1.20;99.90;;;;;;5007654;28;20499;-45
2023/12/01 01:22:33;;;;;;;25.20;19.83;;;1.20;99.90;;;;;;5015190;28;20058;-34
2023/12/01 01:24:59;;;;;;;26.45;20.98;;;1.20;99.90;;;;;;5008517;28;20053;-35
2023/12/01 01:27:25;;;;;;;30.08;21.38;;;1.20;99.90;;;;;;5005981;28;20049;-34
2023/12/01 01:29:51;;;;;;;27.48;20.98;;;1.20;99.90;;;;;;5011261;28;20492;-34
2023/12/01 01:32:16;;;;;;;31.10;25.50;;;1.10;99.90;;;;;;5006896;28;20432;-34
2023/12/01 01:34:42;;;;;;;32.05;24.40;;;1.10;99.90;;;;;;5006309;28;20062;-34
2023/12/01 01:37:08;;;;;;;28.38;22.70;;;1.10;99.90;;;;;;5006863;28;20045;-34
2023/12/01 01:39:34;;;;;;;30.75;22.30;;;1.10;99.90;;;;;;5006791;28;20735;-34
2023/12/01 01:42:00;;;;;;;31.67;24.55;;;1.10;99.90;;;;;;5008986;28;20045;-35
2023/12/01 01:44:26;;;;;;;28.67;22.52;;;1.10;99.90;;;;;;5005280;28;20137;-34
2023/12/01 01:46:53;;;;;;;24.00;15.02;;;1.00;99.90;;;;;;5004894;28;20050;-35
2023/12/01 01:49:26;;;;;;;27.33;16.75;;;1.10;99.90;;;;;;5003479;28;20141;-34
2023/12/01 01:51:58;;;;;;;30.08;24.67;;;1.00;99.90;;;;;;5010216;28;20056;-34
2023/12/01 01:54:25;;;;;;;27.15;14.27;;;1.10;99.90;;;;;;5007226;28;20507;-34
2023/12/01 01:56:52;;;;;;;24.33;14.38;;;1.00;99.90;;;;;;5006991;28;20057;-35
2023/12/01 01:59:22;;;;;;;29.15;15.80;;;1.00;99.90;;;;;;5022626;28;20491;-41
2023/12/01 02:01:48;;;;;;;27.00;21.63;;;1.00;99.90;;;;;;5004604;28;20494;-34
2023/12/01 02:04:15;;;;;;;23.67;15.40;;;1.00;99.90;;;;;;5004968;28;20369;-34
2023/12/01 02:06:41;;;;;;;27.25;15.95;;;1.00;99.90;;;;;;5011881;28;20045;-34
2023/12/01 02:09:07;;;;;;;25.13;15.95;;;1.00;99.90;;;;;;5006443;28;20053;-35
2023/12/01 02:11:35;;;;;;;22.05;13.75;;;1.00;99.90;;;;;;5003133;28;20050;-33
2023/12/01 02:14:02;;;;;;;28.50;16.15;;;1.00;99.90;;;;;;5005842;28;20133;-33
2023/12/01 02:16:28;;;;;;;29.40;23.10;;;1.00;99.90;;;;;;5004328;28;20420;-33
2023/12/01 02:18:54;;;;;;;30.13;18.15;;;1.00;99.90;;;;;;4998315;28;20050;-43
2023/12/01 02:21:27;;;;;;;27.55;16.17;;;1.00;99.90;;;;;;5008652;28;20161;-33
2023/12/01 02:23:53;;;;;;;;;;;1.00;99.90;;;;;;5007921;28;20054;-33
2023/12/01 02:26:20;;;;;;;39.35;35.53;;;1.00;99.90;;;;;;5007987;28;20640;-33
2023/12/01 02:28:46;;;;;;;29.08;20.63;;;1.00;99.90;;;;;;5013094;28;20059;-33
2023/12/01 02:31:12;;;;;;;24.63;14.68;;;1.00;99.90;;;;;;5004268;28;20080;-34
2023/12/01 02:33:38;;;;;;;23.42;15.73;;;1.00;99.90;;;;;;5004659;28;20690;-46
2023/12/01 02:36:06;;;;;;;29.08;23.23;;;1.00;99.90;;;;;;5006910;28;20439;-34
2023/12/01 02:38:33;;;;;;;25.33;14.63;;;1.00;99.90;;;;;;5003788;28;20057;-34
2023/12/01 02:40:58;;;;;;;22.50;13.23;;;1.00;99.90;;;;;;5008125;28;20119;-34
2023/12/01 02:43:24;;;;;;;30.55;22.73;;;0.90;99.90;;;;;;5007681;28;20468;-34
2023/12/01 02:45:50;;;;;;;23.88;13.40;;;0.90;99.90;;;;;;5007574;28;20425;-34
2023/12/01 02:48:16;;;;;;;23.38;13.15;;;0.90;99.90;;;;;;5009797;28;20107;-34
2023/12/01 02:50:42;;;;;;;25.92;17.58;;;0.90;99.90;;;;;;5004355;28;20086;-34
2023/12/01 02:53:08;;;;;;;22.27;13.48;;;0.90;99.90;;;;;;5002596;28;20142;-34
2023/12/01 02:55:34;;;;;;;25.80;19.48;;;0.90;99.90;;;;;;4999961;28;20065;-34
2023/12/01 02:58:00;;;;;;;25.20;19.42;;;0.90;99.90;;;;;;5008709;28;20121;-45
2023/12/01 03:00:26;;;;;;;23.02;13.77;;;0.90;99.90;;;;;;5005849;28;20037;-34
2023/12/01 03:02:52;;;;;;;26.38;20.05;;;0.80;99.90;;;;;;5005788;28;20084;-34
2023/12/01 03:05:19;;;;;;;25.17;19.25;;;0.80;99.90;;;;;;5003418;28;20050;-34
2023/12/01 03:07:46;;;;;;;18.85;11.85;;;0.80;99.90;;;;;;5006965;28;20042;-34
2023/12/01 03:10:12;;;;;;;21.38;12.35;;;0.80;99.90;;;;;;5007536;28;20568;-34
2023/12/01 03:12:40;;;;;;;20.95;11.75;;;0.80;99.90;;;;;;4998905;28;20058;-34
2023/12/01 03:15:19;;;;;;;19.65;11.73;;;0.80;99.90;;;;;;5004208;28;20053;-34
2023/12/01 03:17:46;;;;;;;19.27;12.48;;;0.80;99.90;;;;;;5004786;28;20050;-34
2023/12/01 03:20:14;;;;;;;18.70;11.98;;;0.80;99.90;;;;;;5007719;28;20068;-38
2023/12/01 03:22:41;;;;;;;23.98;18.45;;;0.70;99.90;;;;;;5007299;28;20049;-34
2023/12/01 03:25:09;;;;;;;19.55;10.85;;;0.70;99.90;;;;;;5006049;28;20057;-33
2023/12/01 03:27:42;;;;;;;20.58;10.95;;;0.70;99.90;;;;;;5006022;28;20108;-33
2023/12/01 03:30:16;;;;;;;18.02;11.23;;;0.70;99.90;;;;;;5004140;28;20622;-33
2023/12/01 03:32:51;;;;;;;18.75;12.27;;;0.70;99.90;;;;;;5007010;28;20057;-33
2023/12/01 03:35:24;;;;;;;18.52;12.73;;;0.70;99.90;;;;;;5006797;28;20132;-33
2023/12/01 03:37:56;;;;;;;19.45;14.93;;;0.60;99.90;;;;;;5007804;28;20168;-33
2023/12/01 03:40:23;;;;;;;21.92;16.38;;;0.60;99.90;;;;;;5007687;28;20046;-33
2023/12/01 03:42:49;;;;;;;21.27;16.80;;;0.60;99.90;;;;;;5006076;28;20041;-34
2023/12/01 03:45:16;;;;;;;19.55;15.45;;;0.50;99.90;;;;;;5005019;28;20119;-34
2023/12/01 03:47:46;;;;;;;18.80;14.38;;;0.50;99.90;;;;;;5002609;28;20495;-34
2023/12/01 03:50:12;;;;;;;18.45;15.02;;;0.50;99.90;;;;;;5002918;28;20058;-46
2023/12/01 03:52:43;;;;;;;20.98;17.08;;;0.40;99.90;;;;;;5006445;28;20053;-34
2023/12/01 03:55:10;;;;;;;21.35;16.55;;;0.40;99.90;;;;;;5001911;28;20067;-34
2023/12/01 03:57:36;;;;;;;19.85;16.95;;;0.40;99.90;;;;;;5005373;28;20566;-33
2023/12/01 04:00:07;;;;;;;19.65;16.58;;;0.40;99.90;;;;;;5006453;28;20049;-33
2023/12/01 04:02:38;;;;;;;21.77;18.45;;;0.40;99.90;;;;;;5002350;28;20527;-33
2023/12/01 04:05:04;;;;;;;18.85;16.85;;;0.40;99.90;;;;;;5006339;28;20057;-33
2023/12/01 04:07:30;;;;;;;23.92;18.48;;;0.40;99.90;;;;;;5004741;28;20065;-34
2023/12/01 04:09:55;;;;;;;21.50;17.75;;;0.30;99.90;;;;;;5001731;28;20048;-34
2023/12/01 04:12:21;;;;;;;23.63;18.10;;;0.40;99.90;;;;;;5002260;28;20058;-33
2023/12/01 04:14:47;;;;;;;20.88;17.85;;;0.40;99.90;;;;;;4999290;28;20041;-34
2023/12/01 04:17:13;;;;;;;21.10;14.90;;;0.30;99.90;;;;;;5001320;28;20054;-34
2023/12/01 04:19:39;;;;;;;22.90;20.27;;;0.30;99.90;;;;;;5004015;28;20172;-35
2023/12/01 04:22:05;;;;;;;19.92;14.65;;;0.30;99.90;;;;;;5002267;28;20055;-34
2023/12/01 04:24:35;;;;;;;19.05;15.30;;;0.30;99.90;;;;;;5006214;28;20148;-34
2023/12/01 04:27:02;;;;;;;24.35;21.95;;;0.30;99.90;;;;;;5022172;28;20053;-34
2023/12/01 04:29:31;;;;;;;23.67;15.75;;;0.30;99.90;;;;;;5004997;28;20526;-34
2023/12/01 04:32:00;;;;;;;21.70;16.83;;;0.30;99.90;;;;;;5003273;28;20132;-34
2023/12/01 04:34:28;;;;;;;22.05;16.60;;;0.30;99.90;;;;;;5007016;28;20420;-34
2023/12/01 04:36:54;;;;;;;19.33;17.27;;;0.30;99.90;;;;;;5002542;28;20048;-34
2023/12/01 04:39:20;;;;;;;23.52;21.40;;;0.30;99.90;;;;;;5006336;28;20054;-34
2023/12/01 04:41:50;;;;;;;25.95;23.63;;;0.20;99.90;;;;;;5003473;28;20116;-34
2023/12/01 04:44:16;;;;;;;23.17;20.83;;;0.20;99.90;;;;;;5006067;28;20416;-34
2023/12/01 04:46:42;;;;;;;23.30;21.00;;;0.20;99.90;;;;;;5007762;28;20050;-33
2023/12/01 04:49:08;;;;;;;27.05;24.48;;;0.10;99.90;;;;;;5000175;28;20050;-35
2023/12/01 04:51:37;;;;;;;36.67;33.53;;;0.10;99.90;;;;;;4989682;28;20058;-35
2023/12/01 04:54:07;;;;;;;41.25;37.88;;;0.10;99.90;;;;;;5000894;28;20045;-39
2023/12/01 04:56:33;;;;;;;41.55;38.45;;;0.10;99.90;;;;;;5003220;28;20049;-34
2023/12/01 04:59:02;;;;;;;31.88;29.23;;;0.10;99.90;;;;;;5010020;28;20046;-33
2023/12/01 05:01:28;;;;;;;36.90;33.97;;;0.10;99.90;;;;;;5008738;28;20415;-34
2023/12/01 05:03:55;;;;;;;36.13;33.58;;;0.00;99.90;;;;;;5008975;28;20050;-34
2023/12/01 05:06:21;;;;;;;33.78;31.17;;;0.00;99.90;;;;;;4992776;28;20045;-33
2023/12/01 05:08:46;;;;;;;31.15;28.75;;;0.00;99.90;;;;;;5008194;28;20194;-34
2023/12/01 05:11:12;;;;;;;34.08;31.55;;;0.00;99.90;;;;;;5003589;28;20050;-34
2023/12/01 05:13:38;;;;;;;38.88;35.95;;;0.00;99.90;;;;;;5008163;28;20056;-43
2023/12/01 05:16:04;;;;;;;37.03;34.00;;;0.00;99.90;;;;;;5006283;28;20490;-34
2023/12/01 05:18:30;;;;;;;39.20;36.17;;;0.00;99.90;;;;;;5008234;28;20153;-33
2023/12/01 05:20:56;;;;;;;34.20;31.77;;;-0.10;99.90;;;;;;5008359;28;20125;-33
2023/12/01 05:23:21;;;;;;;39.90;37.20;;;-0.10;99.90;;;;;;5003161;28;20129;-34
2023/12/01 05:25:50;;;;;;;40.40;37.58;;;-0.10;99.90;;;;;;5005604;28;20172;-34
2023/12/01 05:28:16;;;;;;;39.47;36.85;;;-0.20;99.90;;;;;;5008173;28;20050;-34
2023/12/01 05:30:45;;;;;;;33.58;31.13;;;-0.20;99.90;;;;;;5013282;28;20053;-42
2023/12/01 05:33:11;;;;;;;37.33;34.75;;;-0.10;99.90;;;;;;5000856;28;20077;-40
2023/12/01 05:35:38;;;;;;;39.58;36.88;;;-0.20;99.90;;;;;;5006810;28;20161;-34
2023/12/01 05:38:04;;;;;;;42.20;39.30;;;-0.20;99.90;;;;;;5009623;28;20124;-34
2023/12/01 05:40:34;;;;;;;37.65;35.08;;;-0.20;99.90;;;;;;5007421;28;20054;-34
2023/12/01 05:43:00;;;;;;;39.58;36.75;;;-0.20;99.90;;;;;;5006953;28;20123;-34
2023/12/01 05:45:28;;;;;;;37.60;34.80;;;-0.20;99.90;;;;;;5004937;28;20049;-34
2023/12/01 05:47:55;;;;;;;35.83;33.05;;;-0.30;99.90;;;;;;5004508;28;20050;-34
2023/12/01 05:50:27;;;;;;;36.72;33.85;;;-0.30;99.90;;;;;;5008343;28;20547;-34
2023/12/01 05:52:56;;;;;;;32.88;30.40;;;-0.30;99.90;;;;;;5005938;28;20073;-35
2023/12/01 05:55:26;;;;;;;33.33;30.73;;;-0.40;99.90;;;;;;5001311;28;20046;-34
2023/12/01 05:57:54;;;;;;;29.55;27.17;;;-0.50;99.90;;;;;;5003445;28;20775;-34
2023/12/01 06:00:22;;;;;;;23.67;21.45;;;-0.60;99.90;;;;;;5007080;28;20054;-33
2023/12/01 06:02:50;;;;;;;31.13;28.65;;;-0.70;99.90;;;;;;5006533;28;20501;-34
2023/12/01 06:05:17;;;;;;;27.38;25.05;;;-0.80;99.90;;;;;;5006320;28;20068;-34
2023/12/01 06:07:44;;;;;;;28.48;26.27;;;-0.90;99.90;;;;;;5022303;28;20404;-34
2023/12/01 06:10:13;;;;;;;30.60;27.95;;;-0.90;99.90;;;;;;5006924;28;20134;-34
2023/12/01 06:12:40;;;;;;;29.35;26.73;;;-1.00;99.90;;;;;;5006256;28;20400;-34
2023/12/01 06:15:07;;;;;;;28.23;25.73;;;-1.00;99.90;;;;;;5003759;28;20108;-33
2023/12/01 06:17:33;;;;;;;26.98;24.65;;;-1.10;99.90;;;;;;5002879;28;20053;-33
2023/12/01 06:19:59;;;;;;;27.63;25.23;;;-1.10;99.90;;;;;;5005924;28;20048;-33
2023/12/01 06:22:24;;;;;;;27.83;25.27;;;-1.20;99.90;;;;;;5001308;28;20140;-33
2023/12/01 06:24:50;;;;;;;30.15;27.55;;;-1.20;99.90;;;;;;5005514;28;20077;-34
2023/12/01 06:27:16;;;;;;;26.95;24.55;;;-1.20;99.90;;;;;;5007442;28;20050;-34
2023/12/01 06:29:41;;;;;;;32.22;29.30;;;-1.30;99.90;;;;;;5004833;28;20050;-34
2023/12/01 06:32:07;;;;;;;32.60;29.60;;;-1.30;99.90;;;;;;5004102;28;20155;-34
2023/12/01 06:34:33;;;;;;;31.60;28.88;;;-1.30;99.90;;;;;;5011649;28;20054;-41
2023/12/01 06:36:59;;;;;;;33.08;30.30;;;-1.40;99.90;;;;;;5005961;28;20499;-35
2023/12/01 06:39:27;;;;;;;32.90;30.20;;;-1.40;99.90;;;;;;5006860;28;20061;-34
2023/12/01 06:41:53;;;;;;;30.95;28.25;;;-1.40;99.90;;;;;;5008698;28;20276;-36
2023/12/01 06:44:20;;;;;;;29.50;26.67;;;-1.40;99.90;;;;;;5007300;28;20120;-35
2023/12/01 06:46:45;;;;;;;31.52;28.77;;;-1.50;99.90;;;;;;5011335;28;20050;-34
2023/12/01 06:49:11;;;;;;;31.17;28.40;;;-1.50;99.90;;;;;;5007622;28;20420;-34
2023/12/01 06:51:37;;;;;;;30.48;27.80;;;-1.50;99.90;;;;;;5005677;28;20057;-34
2023/12/01 06:54:03;;;;;;;32.03;28.95;;;-1.50;99.90;;;;;;4988036;28;20099;-39
2023/12/01 06:56:28;;;;;;;31.67;28.90;;;-1.60;99.90;;;;;;5008034;28;20144;-34
2023/12/01 06:58:55;;;;;;;30.20;27.60;;;-1.60;99.90;;;;;;5006308;28;20053;-34
2023/12/01 07:01:21;;;;;;;31.67;28.90;;;-1.60;99.90;;;;;;5003709;28;20057;-34
2023/12/01 07:03:47;;;;;;;30.42;27.98;;;-1.60;99.90;;;;;;5002833;28;20508;-33
2023/12/01 07:06:13;;;;;;;31.52;28.90;;;-1.60;99.90;;;;;;5006744;28;20511;-34
2023/12/01 07:08:39;;;;;;;30.75;27.90;;;-1.70;99.90;;;;;;5005401;28;20061;-34
2023/12/01 07:11:05;;;;;;;32.85;30.23;;;-1.70;99.90;;;;;;5004023;28;20475;-35
2023/12/01 07:13:30;;;;;;;33.17;30.55;;;-1.70;99.90;;;;;;5003424;28;20046;-34
2023/12/01 07:15:56;;;;;;;34.65;31.70;;;-1.70;99.90;;;;;;5002229;28;20112;-34
2023/12/01 07:18:23;;;;;;;30.15;27.70;;;-1.70;99.90;;;;;;5002646;28;20057;-33
2023/12/01 07:20:49;;;;;;;30.23;27.80;;;-1.70;99.90;;;;;;5006447;28;20056;-34
2023/12/01 07:23:17;;;;;;;32.35;29.33;;;-1.70;99.90;;;;;;5003753;28;20050;-34
2023/12/01 07:25:47;;;;;;;33.08;30.05;;;-1.80;99.90;;;;;;5000339;28;20189;-34
2023/12/01 07:28:13;;;;;;;33.70;30.70;;;-1.80;99.90;;;;;;5003252;28;20137;-34
2023/12/01 07:30:41;;;;;;;35.22;32.15;;;-1.90;99.90;;;;;;5002802;28;20266;-34
2023/12/01 07:33:09;;;;;;;34.75;31.70;;;-1.90;99.90;;;;;;5003921;28;20053;-34
2023/12/01 07:35:34;;;;;;;37.60;34.55;;;-1.90;99.90;;;;;;5000971;28;20125;-34
2023/12/01 07:38:01;;;;;;;33.05;30.63;;;-1.90;99.90;;;;;;5003638;28;20602;-33
2023/12/01 07:40:27;;;;;;;37.38;34.25;;;-1.90;99.90;;;;;;5014924;28;20519;-34
2023/12/01 07:42:56;;;;;;;45.83;42.15;;;-1.90;99.90;;;;;;5005668;28;20046;-34
2023/12/01 07:45:23;;;;;;;45.38;41.80;;;-1.90;99.90;;;;;;4999262;28;20050;-34
2023/12/01 07:47:50;;;;;;;41.42;38.22;;;-1.90;99.90;;;;;;5008571;28;20133;-34
2023/12/01 07:50:17;;;;;;;36.17;33.30;;;-1.90;99.90;;;;;;5006297;28;20077;-35
2023/12/01 07:52:47;;;;;;;41.65;37.95;;;-1.90;99.90;;;;;;5004633;28;20053;-34
2023/12/01 07:55:13;;;;;;;40.00;36.60;;;-2.00;99.90;;;;;;5003873;28;20573;-33
2023/12/01 07:57:39;;;;;;;38.38;35.42;;;-2.00;99.90;;;;;;5009966;28;20050;-34
2023/12/01 08:00:14;;;;;;;42.30;38.88;;;-2.00;99.90;;;;;;5008182;28;20102;-34
2023/12/01 08:02:44;;;;;;;49.88;45.85;;;-2.00;99.90;;;;;;5007937;28;20050;-34
2023/12/01 08:05:16;;;;;;;42.83;39.25;;;-2.00;99.90;;;;;;5006445;28;20054;-33
2023/12/01 08:07:46;;;;;;;43.13;39.85;;;-2.00;99.90;;;;;;5009488;28;20531;-34
2023/12/01 08:10:18;;;;;;;37.47;34.33;;;-1.90;99.90;;;;;;4996987;28;20108;-34
2023/12/01 08:12:45;;;;;;;52.40;48.35;;;-1.90;99.90;;;;;;5006531;28;20077;-34
2023/12/01 08:15:11;;;;;;;43.13;39.53;;;-1.90;99.90;;;;;;5000134;28;20492;-34
2023/12/01 08:17:38;;;;;;;34.97;32.15;;;-1.90;99.90;;;;;;5007581;28;20042;-39
2023/12/01 08:20:05;;;;;;;38.88;35.42;;;-1.90;99.90;;;;;;4998265;28;20404;-33
2023/12/01 08:22:32;;;;;;;31.67;28.88;;;-1.80;99.90;;;;;;4994782;28;20088;-33
2023/12/01 08:24:57;;;;;;;40.00;36.80;;;-1.80;99.90;;;;;;4993261;28;20111;-39
2023/12/01 08:27:23;;;;;;;39.60;36.17;;;-1.80;99.90;;;;;;5009360;28;20049;-34
2023/12/01 08:29:50;;;;;;;37.85;34.55;;;-1.80;99.90;;;;;;5000942;28;20045;-33
2023/12/01 08:32:16;;;;;;;39.28;35.53;;;-1.80;99.90;;;;;;5005136;28;20121;-34
2023/12/01 08:34:42;;;;;;;33.67;30.75;;;-1.80;99.90;;;;;;5004763;28;20050;-35
2023/12/01 08:37:08;;;;;;;36.33;33.42;;;-1.80;99.90;;;;;;5004553;28;20062;-33
2023/12/01 08:39:33;;;;;;;40.35;37.13;;;-1.80;99.90;;;;;;5003551;28;20053;-34
2023/12/01 08:41:59;;;;;;;35.58;32.50;;;-1.80;99.90;;;;;;5011753;28;20065;-34
2023/12/01 08:44:25;;;;;;;33.25;30.50;;;-1.80;99.90;;;;;;5008801;28;20572;-33
2023/12/01 08:46:51;;;;;;;38.10;35.03;;;-1.80;99.90;;;;;;5007947;28;20052;-33
2023/12/01 08:49:16;;;;;;;37.05;33.83;;;-1.80;99.90;;;;;;5008095;28;20486;-33
2023/12/01 08:51:42;;;;;;;35.97;32.70;;;-1.70;99.90;;;;;;5003530;28;20053;-33
2023/12/01 08:54:07;;;;;;;35.45;32.13;;;-1.70;99.90;;;;;;5010302;28;20077;-33
2023/12/01 08:56:34;;;;;;;31.85;29.10;;;-1.70;99.90;;;;;;5006820;28;20088;-33
2023/12/01 08:59:00;;;;;;;36.25;33.17;;;-1.70;99.90;;;;;;5006702;28;20065;-33
2023/12/01 09:01:26;;;;;;;30.83;27.85;;;-1.60;99.90;;;;;;5011285;28;20053;-34
2023/12/01 09:03:52;;;;;;;33.63;30.63;;;-1.60;99.90;;;;;;5007099;28;20542;-33
2023/12/01 09:06:17;;;;;;;33.85;30.88;;;-1.60;99.90;;;;;;5010261;28;20049;-33
2023/12/01 09:08:43;;;;;;;35.00;31.88;;;-1.60;99.90;;;;;;5011783;28;20073;-33
2023/12/01 09:11:09;;;;;;;37.85;34.65;;;-1.60;99.90;;;;;;5007411;28;20065;-33
2023/12/01 09:13:36;;;;;;;38.95;35.72;;;-1.50;99.90;;;;;;5008765;28;20045;-34
2023/12/01 09:16:02;;;;;;;39.72;36.25;;;-1.50;99.90;;;;;;5004670;28;20041;-33
2023/12/01 09:18:32;;;;;;;37.47;34.25;;;-1.50;99.90;;;;;;5006253;28;20423;-33
2023/12/01 09:20:57;;;;;;;30.83;27.77;;;-1.40;99.90;;;;;;5004955;28;20053;-33
2023/12/01 09:23:24;;;;;;;35.50;32.15;;;-1.40;99.90;;;;;;5005620;28;20065;-34
2023/12/01 09:25:50;;;;;;;30.60;27.65;;;-1.30;99.90;;;;;;5005583;28;20058;-35
2023/12/01 09:28:16;;;;;;;29.75;26.88;;;-1.30;99.90;;;;;;5004512;28;20511;-34
2023/12/01 09:30:42;;;;;;;32.38;29.38;;;-1.30;99.90;;;;;;5010403;28;20674;-34
2023/12/01 09:33:08;;;;;;;27.58;24.88;;;-1.20;99.90;;;;;;5004193;28;20058;-35
2023/12/01 09:35:33;;;;;;;29.55;26.65;;;-1.20;99.90;;;;;;5006655;28;20907;-33
2023/12/01 09:37:59;;;;;;;28.05;25.27;;;-1.10;99.90;;;;;;5018152;28;20186;-33
2023/12/01 09:40:24;;;;;;;28.90;25.88;;;-1.10;99.90;;;;;;5005869;28;20073;-33
2023/12/01 09:42:51;;;;;;;27.63;24.67;;;-1.10;99.90;;;;;;5006425;28;20041;-35
2023/12/01 09:45:22;;;;;;;24.35;20.83;;;-1.00;99.90;;;;;;5005918;28;20104;-33
2023/12/01 09:47:58;;;;;;;26.48;21.63;;;-1.00;99.90;;;;;;4998144;28;20082;-34
2023/12/01 09:50:24;;;;;;;25.98;23.40;;;-0.90;99.90;;;;;;5007835;28;20042;-38
2023/12/01 09:52:52;;;;;;;25.10;22.60;;;-0.90;99.90;;;;;;5008553;28;20136;-38
2023/12/01 09:55:19;;;;;;;25.75;21.27;;;-0.80;99.90;;;;;;5008811;28;20798;-34
2023/12/01 09:57:45;;;;;;;27.73;24.20;;;-0.80;99.90;;;;;;5016457;28;20050;-34
2023/12/01 10:00:11;;;;;;;25.02;20.83;;;-0.70;99.90;;;;;;4988037;28;20054;-33
2023/12/01 10:02:41;;;;;;;25.77;19.30;;;-0.70;99.90;;;;;;4992468;28;20058;-33
2023/12/01 10:05:07;;;;;;;23.70;16.50;;;-0.60;99.90;;;;;;5012536;28;20056;-33
2023/12/01 10:07:36;;;;;;;21.38;18.73;;;-0.60;99.90;;;;;;4992076;28;20050;-33
2023/12/01 10:10:28;;;;;;;21.10;17.10;;;-0.60;99.90;;;;;;5010654;28;20480;-33
2023/12/01 10:12:57;;;;;;;24.13;20.27;;;-0.50;99.90;;;;;;4998688;28;20141;-33
2023/12/01 10:15:25;;;;;;;22.13;17.33;;;-0.50;99.90;;;;;;4997007;28;20474;-33
2023/12/01 10:18:08;;;;;;;24.17;19.77;;;-0.40;99.90;;;;;;4988578;28;20054;-34
2023/12/01 10:20:35;;;;;;;17.60;14.30;;;-0.40;99.90;;;;;;4983093;28;20054;-35
2023/12/01 10:23:15;;;;;;;18.80;13.02;;;-0.40;99.90;;;;;;4987596;28;20058;-34
2023/12/01 10:25:45;;;;;;;19.98;12.85;;;-0.40;99.90;;;;;;5002667;28;20080;-34
2023/12/01 10:28:12;;;;;;;21.67;13.65;;;-0.30;99.90;;;;;;4983776;28;20058;-34
2023/12/01 10:30:50;;;;;;;23.42;15.63;;;-0.30;99.90;;;;;;4988143;28;20050;-43
2023/12/01 10:33:16;;;;;;;19.48;13.15;;;-0.20;99.90;;;;;;4985462;28;20080;-35
2023/12/01 10:36:09;;;;;;;23.25;14.48;;;-0.10;99.90;;;;;;4988887;28;20107;-34
2023/12/01 10:38:36;;;;;;;20.63;11.35;;;-0.10;99.90;;;;;;5005311;28;20045;-33
2023/12/01 10:41:05;;;;;;;23.33;12.52;;;0.00;99.90;;;;;;5004695;28;20137;-35
2023/12/01 10:43:32;;;;;;;21.83;10.70;;;0.10;99.90;;;;;;5008368;28;20136;-34
2023/12/01 10:46:04;;;;;;;19.38;12.23;;;0.20;99.90;;;;;;5005684;28;20436;-33
2023/12/01 10:48:31;;;;;;;20.23;12.13;;;0.40;99.90;;;;;;5014864;28;20079;-34
2023/12/01 10:50:57;;;;;;;19.67;13.20;;;0.50;99.90;;;;;;4998256;28;20100;-34
2023/12/01 10:53:26;;;;;;;17.77;11.75;;;0.60;99.90;;;;;;4995766;28;20512;-34
2023/12/01 10:55:54;;;;;;;20.33;11.70;;;0.60;99.90;;;;;;4998440;28;20089;-34
2023/12/01 10:58:25;;;;;;;18.65;9.77;;;0.80;99.90;;;;;;5008306;28;20587;-34
2023/12/01 11:00:53;;;;;;;17.08;9.23;;;0.90;99.90;;;;;;5007316;28;20049;-33
2023/12/01 11:03:23;;;;;;;15.02;9.63;;;1.00;99.90;;;;;;5005197;28;20478;-35
2023/12/01 11:05:52;;;;;;;17.30;10.60;;;1.00;99.90;;;;;;5006976;28;20116;-46
2023/12/01 11:08:42;;;;;;;14.95;12.52;;;1.10;99.90;;;;;;4991447;28;20057;-34
2023/12/01 11:11:36;;;;;;;21.73;19.48;;;1.20;99.90;;;;;;4996908;28;20077;-44
2023/12/01 11:14:15;;;;;;;26.35;24.27;;;1.30;99.90;;;;;;5002645;28;21315;-34
2023/12/01 11:16:42;;;;;;;26.92;24.48;;;1.40;99.90;;;;;;5008204;28;20129;-34
2023/12/01 11:19:09;;;;;;;24.95;22.83;;;1.50;99.90;;;;;;5010300;28;20560;-34
2023/12/01 11:21:35;;;;;;;28.52;25.95;;;1.60;99.90;;;;;;5007260;28;20054;-35
2023/12/01 11:24:23;;;;;;;24.05;21.83;;;1.80;99.90;;;;;;5005282;28;20088;-34
2023/12/01 11:26:48;;;;;;;17.80;15.88;;;2.10;99.90;;;;;;5002285;28;20085;-34
2023/12/01 11:29:29;;;;;;;16.85;14.27;;;2.20;99.90;;;;;;5006412;28;20459;-33
2023/12/01 11:31:58;;;;;;;18.27;16.38;;;2.40;99.90;;;;;;5006695;28;21229;-35
2023/12/01 11:34:25;;;;;;;15.27;12.35;;;2.70;99.90;;;;;;5013343;28;20045;-33
2023/12/01 11:36:52;;;;;;;11.60;7.25;;;2.90;99.90;;;;;;5007780;28;20521;-33
2023/12/01 11:39:29;;;;;;;14.63;8.02;;;3.10;99.90;;;;;;5007720;28;20100;-34
2023/12/01 11:41:58;;;;;;;11.48;7.30;;;3.30;99.90;;;;;;5007658;28;20057;-34
2023/12/01 11:44:30;;;;;;;11.98;7.43;;;3.50;99.90;;;;;;5015950;28;20464;-34
2023/12/01 11:46:57;;;;;;;11.10;7.18;;;3.70;99.90;;;;;;5005710;28;20061;-33
2023/12/01 11:49:34;;;;;;;11.70;7.35;;;3.90;99.90;;;;;;5001472;28;20491;-34
2023/12/01 11:52:01;;;;;;;10.85;6.40;;;4.10;99.90;;;;;;5001217;28;20510;-33
2023/12/01 11:54:27;;;;;;;11.05;7.00;;;4.30;99.90;;;;;;5006290;28;20492;-47
2023/12/01 11:56:57;;;;;;;10.40;6.45;;;4.50;99.90;;;;;;5005861;28;20471;-34
2023/12/01 11:59:24;;;;;;;10.57;6.20;;;4.70;99.90;;;;;;5005982;28;20050;-44
2023/12/01 12:01:52;;;;;;;10.57;6.45;;;5.00;99.90;;;;;;5005207;28;20629;-34
2023/12/01 12:04:18;;;;;;;9.48;6.03;;;5.20;99.90;;;;;;5005093;28;20111;-34
2023/12/01 12:06:45;;;;;;;10.38;6.38;;;5.40;99.90;;;;;;5004733;28;20750;-34
2023/12/01 12:09:18;;;;;;;10.43;5.88;;;5.60;99.90;;;;;;5008796;28;20058;-34
2023/12/01 12:11:45;;;;;;;10.63;6.00;;;5.90;99.90;;;;;;5010722;28;20053;-34
2023/12/01 12:14:15;;;;;;;10.02;5.57;;;6.20;99.90;;;;;;5003719;28;20132;-34
2023/12/01 12:16:41;;;;;;;10.45;6.00;;;6.50;99.90;;;;;;5007931;28;20049;-34
2023/12/01 12:19:08;;;;;;;9.63;5.28;;;6.80;99.90;;;;;;5004783;28;20068;-39
2023/12/01 12:21:35;;;;;;;8.95;5.28;;;7.00;99.90;;;;;;5006038;28;20054;-41
2023/12/01 12:24:01;;;;;;;10.00;5.25;;;7.20;99.90;;;;;;5008254;28;20141;-34
2023/12/01 12:26:28;;;;;;;8.43;5.38;;;7.30;99.90;;;;;;5002671;28;20576;-34
2023/12/01 12:28:58;;;;;;;8.95;5.35;;;7.40;99.90;;;;;;5006880;28;20605;-34
2023/12/01 12:31:26;;;;;;;9.88;5.82;;;7.40;99.90;;;;;;5002488;28;20057;-34
2023/12/01 12:33:59;;;;;;;10.05;5.85;;;7.60;99.90;;;;;;5007318;28;20054;-34
2023/12/01 12:36:26;;;;;;;9.65;5.63;;;7.80;99.90;;;;;;4998151;28;20121;-34